createdAt,value
2019-06-20T00:02:16.193Z,21.00
2019-06-20T00:04:44.829Z,20.90
2019-06-20T00:07:13.515Z,20.80
2019-06-20T00:09:42.343Z,20.80
2019-06-20T00:12:11.095Z,20.90
2019-06-20T00:14:39.903Z,20.90
2019-06-20T00:17:08.727Z,20.90
2019-06-20T00:19:37.594Z,20.80
2019-06-20T00:22:06.349Z,20.80
2019-06-20T00:24:35.172Z,20.80
2019-06-20T00:27:03.990Z,20.70
2019-06-20T00:29:32.748Z,20.80
2019-06-20T00:32:01.629Z,20.70
2019-06-20T00:34:30.420Z,20.70
2019-06-20T00:36:59.240Z,20.60
2019-06-20T00:39:27.987Z,20.60
2019-06-20T00:41:56.809Z,20.70
2019-06-20T00:44:25.638Z,20.70
2019-06-20T00:46:54.390Z,20.70
2019-06-20T00:49:23.209Z,20.70
2019-06-20T00:51:52.028Z,20.60
2019-06-20T00:54:20.956Z,20.60
2019-06-20T00:56:49.775Z,20.70
2019-06-20T00:59:18.627Z,20.70
2019-06-20T01:01:47.608Z,20.70
2019-06-20T01:04:16.414Z,20.70
2019-06-20T01:06:45.239Z,20.80
2019-06-20T01:09:14.132Z,20.90
2019-06-20T01:11:43.079Z,20.90
2019-06-20T01:14:13.662Z,20.90
2019-06-20T01:16:42.429Z,20.80
2019-06-20T01:19:11.150Z,20.70
2019-06-20T01:21:39.971Z,20.70
2019-06-20T01:24:08.784Z,20.80
2019-06-20T01:26:37.615Z,20.80
2019-06-20T01:29:06.440Z,20.70
2019-06-20T01:31:35.339Z,20.70
2019-06-20T01:34:04.359Z,20.60
2019-06-20T01:36:33.176Z,20.60
2019-06-20T01:39:02.007Z,20.50
2019-06-20T01:41:30.837Z,20.50
2019-06-20T01:43:59.671Z,20.50
2019-06-20T01:46:28.582Z,20.50
2019-06-20T01:48:57.358Z,20.50
2019-06-20T01:51:26.097Z,20.40
2019-06-20T01:53:55.045Z,20.40
2019-06-20T01:56:23.776Z,20.50
2019-06-20T01:58:52.654Z,20.50
2019-06-20T02:01:21.541Z,20.50
2019-06-20T02:03:50.424Z,20.40
2019-06-20T02:06:19.179Z,20.40
2019-06-20T02:08:48.031Z,20.40
2019-06-20T02:11:16.856Z,20.40
2019-06-20T02:13:45.608Z,20.30
2019-06-20T02:16:14.638Z,20.30
2019-06-20T02:18:43.451Z,20.30
2019-06-20T02:21:12.310Z,20.30
2019-06-20T02:23:42.989Z,20.40
2019-06-20T02:26:11.725Z,20.30
2019-06-20T02:28:40.658Z,20.30
2019-06-20T02:31:09.489Z,20.40
2019-06-20T02:33:38.314Z,20.30
2019-06-20T02:36:08.263Z,20.30
2019-06-20T02:38:37.204Z,20.30
2019-06-20T02:41:06.102Z,20.30
2019-06-20T02:43:34.990Z,20.40
2019-06-20T02:46:04.120Z,20.40
2019-06-20T02:48:32.933Z,20.50
2019-06-20T02:51:02.662Z,20.50
2019-06-20T02:53:30.551Z,20.60
2019-06-20T02:56:00.714Z,20.60
2019-06-20T02:58:29.393Z,20.60
2019-06-20T03:00:58.924Z,20.70
2019-06-20T03:03:28.833Z,20.70
2019-06-20T03:05:58.159Z,20.70
2019-06-20T03:08:27.195Z,20.80
2019-06-20T03:10:55.995Z,20.80
2019-06-20T03:13:24.840Z,20.80
2019-06-20T03:15:53.659Z,20.80
2019-06-20T03:18:22.519Z,20.90
2019-06-20T03:20:51.346Z,21.00
2019-06-20T03:23:20.185Z,21.10
2019-06-20T03:25:49.001Z,21.10
2019-06-20T03:28:17.906Z,21.20
2019-06-20T03:30:46.688Z,21.30
2019-06-20T03:33:15.713Z,21.40
2019-06-20T03:35:44.651Z,21.80
2019-06-20T03:38:13.532Z,22.90
2019-06-20T03:40:42.385Z,24.10
2019-06-20T03:43:11.315Z,25.20
2019-06-20T03:45:40.203Z,25.50
2019-06-20T03:48:09.100Z,26.00
2019-06-20T03:50:37.990Z,26.70
2019-06-20T03:53:06.828Z,27.30
2019-06-20T03:55:35.664Z,27.30
2019-06-20T03:58:04.608Z,26.80
2019-06-20T04:00:35.115Z,26.50
2019-06-20T04:03:04.844Z,26.80
2019-06-20T04:05:33.684Z,27.30
2019-06-20T04:08:02.603Z,27.90
2019-06-20T04:10:31.460Z,28.10
2019-06-20T04:13:00.350Z,27.30
2019-06-20T04:15:29.273Z,27.10
2019-06-20T04:17:58.097Z,26.80
2019-06-20T04:20:27.018Z,27.30
2019-06-20T04:22:57.690Z,27.30
2019-06-20T04:25:26.436Z,27.30
2019-06-20T04:27:55.259Z,28.00
2019-06-20T04:30:24.098Z,28.50
2019-06-20T04:32:52.941Z,28.70
2019-06-20T04:35:21.692Z,29.20
2019-06-20T04:37:50.506Z,28.90
2019-06-20T04:40:19.476Z,28.00
2019-06-20T04:42:48.295Z,27.50
2019-06-20T04:45:34.197Z,28.20
2019-06-20T04:47:52.279Z,29.10
2019-06-20T04:50:21.105Z,29.60
2019-06-20T04:52:50.855Z,29.60
2019-06-20T04:55:19.692Z,30.00
2019-06-20T04:57:48.529Z,30.70
2019-06-20T05:00:17.560Z,31.00
2019-06-20T05:02:46.418Z,31.00
2019-06-20T05:05:15.649Z,31.30
2019-06-20T05:07:45.575Z,31.20
2019-06-20T05:10:14.118Z,31.30
2019-06-20T05:12:42.928Z,31.20
2019-06-20T05:15:12.945Z,31.20
2019-06-20T05:17:41.771Z,31.50
2019-06-20T05:20:11.054Z,31.30
2019-06-20T05:22:39.134Z,32.00
2019-06-20T05:25:07.995Z,32.60
2019-06-20T05:27:36.821Z,32.50
2019-06-20T05:30:11.605Z,32.40
2019-06-20T05:32:40.504Z,32.30
2019-06-20T05:35:10.693Z,32.50
2019-06-20T05:37:39.544Z,33.20
2019-06-20T05:40:08.332Z,32.60
2019-06-20T05:42:37.082Z,33.00
2019-06-20T05:45:07.825Z,33.10
2019-06-20T05:47:36.745Z,33.20
2019-06-20T05:50:09.762Z,34.00
2019-06-20T05:52:38.479Z,34.20
2019-06-20T05:55:07.795Z,34.00
2019-06-20T05:57:36.625Z,33.80
2019-06-20T06:00:09.409Z,34.10
2019-06-20T06:02:38.348Z,33.70
2019-06-20T06:05:06.840Z,34.70
2019-06-20T06:07:35.671Z,34.40
2019-06-20T06:10:06.760Z,34.90
2019-06-20T06:12:36.329Z,35.10
2019-06-20T06:15:07.369Z,34.50
2019-06-20T06:17:36.424Z,33.50
2019-06-20T06:20:07.344Z,32.40
2019-06-20T06:22:36.192Z,31.20
2019-06-20T06:25:06.598Z,29.90
2019-06-20T06:27:35.436Z,28.80
2019-06-20T06:30:07.200Z,28.70
2019-06-20T06:32:40.120Z,28.30
2019-06-20T06:35:08.263Z,28.10
2019-06-20T06:37:37.000Z,28.10
2019-06-20T06:40:08.401Z,27.90
2019-06-20T06:42:37.183Z,27.60
2019-06-20T06:45:08.768Z,27.80
2019-06-20T06:47:37.708Z,27.80
2019-06-20T06:50:08.024Z,27.70
2019-06-20T06:52:36.943Z,27.80
2019-06-20T06:55:06.663Z,27.70
2019-06-20T06:57:35.677Z,27.90
2019-06-20T07:00:12.620Z,27.80
2019-06-20T07:02:41.649Z,27.80
2019-06-20T07:05:11.727Z,28.00
2019-06-20T07:07:41.765Z,28.10
2019-06-20T07:10:10.931Z,28.30
2019-06-20T07:12:39.789Z,28.20
2019-06-20T07:15:10.121Z,28.20
2019-06-20T07:17:38.848Z,28.40
2019-06-20T07:20:08.503Z,28.50
2019-06-20T07:22:37.234Z,28.50
2019-06-20T07:25:09.631Z,28.40
2019-06-20T07:27:38.772Z,28.30
2019-06-20T07:30:10.002Z,28.40
2019-06-20T07:32:38.928Z,28.50
2019-06-20T07:35:08.968Z,28.50
2019-06-20T07:37:37.780Z,28.40
2019-06-20T07:40:07.297Z,28.60
2019-06-20T07:42:36.380Z,28.90
2019-06-20T07:45:09.719Z,29.30
2019-06-20T07:47:38.573Z,29.40
2019-06-20T07:50:09.385Z,29.90
2019-06-20T07:52:38.238Z,30.30
2019-06-20T07:55:09.079Z,31.30
2019-06-20T07:57:38.078Z,31.60
2019-06-20T08:00:10.415Z,32.40
2019-06-20T08:02:39.320Z,34.20
2019-06-20T08:05:08.461Z,35.80
2019-06-20T08:07:37.282Z,36.60
2019-06-20T08:10:09.579Z,37.60
2019-06-20T08:12:38.411Z,38.20
2019-06-20T08:15:14.936Z,38.70
2019-06-20T08:17:37.550Z,38.00
2019-06-20T08:20:07.907Z,37.20
2019-06-20T08:22:36.731Z,36.90
2019-06-20T08:25:05.727Z,37.00
2019-06-20T08:27:49.970Z,36.20
2019-06-20T08:30:21.642Z,34.40
2019-06-20T08:32:50.905Z,34.90
2019-06-20T08:35:21.804Z,35.90
2019-06-20T08:37:51.031Z,36.90
2019-06-20T08:40:20.677Z,37.40
2019-06-20T08:42:49.531Z,36.60
2019-06-20T08:45:17.692Z,36.40
2019-06-20T08:47:47.683Z,36.20
2019-06-20T08:50:16.825Z,36.20
2019-06-20T08:52:45.709Z,35.40
2019-06-20T08:55:15.658Z,35.50
2019-06-20T08:57:44.422Z,36.20
2019-06-20T09:00:13.017Z,36.00
2019-06-20T09:02:42.854Z,35.20
2019-06-20T09:05:12.272Z,34.30
2019-06-20T09:07:42.292Z,33.50
2019-06-20T09:10:12.309Z,32.90
2019-06-20T09:12:41.055Z,32.60
2019-06-20T09:15:10.375Z,32.50
2019-06-20T09:17:39.414Z,32.00
2019-06-20T09:20:09.931Z,31.70
2019-06-20T09:22:38.745Z,31.90
2019-06-20T09:25:08.860Z,31.80
2019-06-20T09:27:38.259Z,31.70
2019-06-20T09:30:08.374Z,31.10
2019-06-20T09:32:37.221Z,30.90
2019-06-20T09:35:07.741Z,30.90
2019-06-20T09:37:36.787Z,30.70
2019-06-20T09:40:06.608Z,30.80
2019-06-20T09:42:36.890Z,31.10
2019-06-20T09:45:10.463Z,30.80
2019-06-20T09:47:39.761Z,31.00
2019-06-20T09:50:10.927Z,31.20
2019-06-20T09:52:40.279Z,31.40
2019-06-20T09:55:10.870Z,31.30
2019-06-20T09:57:39.618Z,30.90
2019-06-20T10:00:13.831Z,30.90
2019-06-20T10:02:42.724Z,30.80
2019-06-20T10:05:11.939Z,30.30
2019-06-20T10:07:40.881Z,30.60
2019-06-20T10:10:12.002Z,30.60
2019-06-20T10:12:40.809Z,30.60
2019-06-20T10:15:24.231Z,30.60
2019-06-20T10:17:54.510Z,30.40
2019-06-20T10:20:24.409Z,30.50
2019-06-20T10:22:53.672Z,30.80
2019-06-20T10:25:21.944Z,30.70
2019-06-20T10:27:51.382Z,30.50
2019-06-20T10:30:24.643Z,30.20
2019-06-20T10:32:55.136Z,30.10
2019-06-20T10:35:23.932Z,30.30
2019-06-20T10:37:53.066Z,30.90
2019-06-20T10:40:21.487Z,31.30
2019-06-20T10:42:50.313Z,31.70
2019-06-20T10:45:21.525Z,31.70
2019-06-20T10:47:50.954Z,31.30
2019-06-20T10:50:20.689Z,31.30
2019-06-20T10:52:50.084Z,30.80
2019-06-20T10:55:19.411Z,30.40
2019-06-20T10:57:49.872Z,30.50
2019-06-20T11:00:30.317Z,30.60
2019-06-20T11:02:49.572Z,30.50
2019-06-20T11:05:19.385Z,30.70
2019-06-20T11:07:49.731Z,31.00
2019-06-20T11:10:19.519Z,31.10
2019-06-20T11:12:55.260Z,30.70
2019-06-20T11:15:20.718Z,30.60
2019-06-20T11:17:49.564Z,30.30
2019-06-20T11:20:18.711Z,29.80
2019-06-20T11:22:47.964Z,29.70
2019-06-20T11:25:19.352Z,30.10
2019-06-20T11:27:47.764Z,30.20
2019-06-20T11:30:25.538Z,30.10
2019-06-20T11:32:56.212Z,30.10
2019-06-20T11:35:25.957Z,29.90
2019-06-20T11:37:54.810Z,29.90
2019-06-20T11:40:23.672Z,30.00
2019-06-20T11:42:52.762Z,30.20
2019-06-20T11:45:22.179Z,30.30
2019-06-20T11:47:50.916Z,30.20
2019-06-20T11:50:20.334Z,29.90
2019-06-20T11:52:49.143Z,29.90
2019-06-20T11:55:18.755Z,30.20
2019-06-20T11:57:47.518Z,30.20
2019-06-20T12:00:19.186Z,30.40
2019-06-20T12:02:48.343Z,30.10
2019-06-20T12:05:17.563Z,30.20
2019-06-20T12:07:47.872Z,30.00
2019-06-20T12:10:17.674Z,30.10
2019-06-20T12:12:48.985Z,30.20
2019-06-20T12:15:18.093Z,30.20
2019-06-20T12:17:47.253Z,30.30
2019-06-20T12:20:16.705Z,30.20
2019-06-20T12:22:45.077Z,30.30
2019-06-20T12:25:15.912Z,30.30
2019-06-20T12:27:45.429Z,30.30
2019-06-20T12:30:19.215Z,30.20
2019-06-20T12:32:49.292Z,30.20
2019-06-20T12:35:20.450Z,30.40
2019-06-20T12:37:49.989Z,30.10
2019-06-20T12:40:20.617Z,30.20
2019-06-20T12:42:49.474Z,30.30
2019-06-20T12:45:18.872Z,30.20
2019-06-20T12:47:46.948Z,30.10
2019-06-20T12:50:16.378Z,29.90
2019-06-20T12:52:45.760Z,30.00
2019-06-20T12:55:15.068Z,30.00
2019-06-20T12:57:44.325Z,30.00
2019-06-20T13:00:14.508Z,29.80
2019-06-20T13:02:43.752Z,29.70
2019-06-20T13:05:13.397Z,29.90
2019-06-20T13:07:44.265Z,30.00
2019-06-20T13:10:13.513Z,30.10
2019-06-20T13:12:42.753Z,30.20
2019-06-20T13:15:13.481Z,29.90
2019-06-20T13:17:43.140Z,29.80
2019-06-20T13:20:12.416Z,29.80
2019-06-20T13:22:41.366Z,29.80
2019-06-20T13:25:11.964Z,29.70
2019-06-20T13:27:41.042Z,29.50
2019-06-20T13:30:11.154Z,29.50
2019-06-20T13:32:41.727Z,29.40
2019-06-20T13:35:12.145Z,29.50
2019-06-20T13:37:42.057Z,29.60
2019-06-20T13:40:12.319Z,29.50
2019-06-20T13:42:42.672Z,29.50
2019-06-20T13:45:23.187Z,29.60
2019-06-20T13:47:52.433Z,29.80
2019-06-20T13:50:20.721Z,30.10
2019-06-20T13:52:51.195Z,30.20
2019-06-20T13:55:19.949Z,30.30
2019-06-20T13:57:49.256Z,30.30
2019-06-20T14:00:20.442Z,30.10
2019-06-20T14:02:51.119Z,30.20
2019-06-20T14:05:20.380Z,30.40
2019-06-20T14:07:53.249Z,30.40
2019-06-20T14:10:20.079Z,30.40
2019-06-20T14:12:49.647Z,30.20
2019-06-20T14:15:18.932Z,29.90
2019-06-20T14:17:49.612Z,29.80
2019-06-20T14:20:17.775Z,29.70
2019-06-20T14:22:46.585Z,29.50
2019-06-20T14:25:15.544Z,29.30
2019-06-20T14:27:45.973Z,29.20
2019-06-20T14:30:15.248Z,29.20
2019-06-20T14:32:44.063Z,29.10
2019-06-20T14:35:13.217Z,28.70
2019-06-20T14:37:43.325Z,28.10
2019-06-20T14:40:12.829Z,27.40
2019-06-20T14:42:42.963Z,27.10
2019-06-20T14:45:12.291Z,27.00
2019-06-20T14:47:41.194Z,27.00
2019-06-20T14:50:10.726Z,27.30
2019-06-20T14:52:39.786Z,27.40
2019-06-20T14:55:09.243Z,27.60
2019-06-20T14:57:38.069Z,27.60
2019-06-20T15:00:08.200Z,27.80
2019-06-20T15:02:38.779Z,27.90
2019-06-20T15:05:15.329Z,28.00
2019-06-20T15:07:45.700Z,28.00
2019-06-20T15:10:15.743Z,27.60
2019-06-20T15:12:47.877Z,27.20
2019-06-20T15:15:15.587Z,27.00
2019-06-20T15:17:46.922Z,27.00
2019-06-20T15:20:15.181Z,27.10
2019-06-20T15:22:46.736Z,27.30
2019-06-20T15:25:14.874Z,27.40
2019-06-20T15:27:43.749Z,27.50
2019-06-20T15:30:13.925Z,27.40
2019-06-20T15:32:55.240Z,27.50
2019-06-20T15:35:13.209Z,27.50
2019-06-20T15:37:42.129Z,27.50
2019-06-20T15:40:11.074Z,27.50
2019-06-20T15:42:39.891Z,27.60
2019-06-20T15:45:10.216Z,27.60
2019-06-20T15:47:39.047Z,27.60
2019-06-20T15:50:08.977Z,27.60
2019-06-20T15:52:37.819Z,27.60
2019-06-20T15:55:08.599Z,27.60
2019-06-20T15:57:37.430Z,27.70
2019-06-20T16:00:08.289Z,27.70
2019-06-20T16:02:37.019Z,27.90
2019-06-20T16:05:07.541Z,27.90
2019-06-20T16:07:36.356Z,27.90
2019-06-20T16:10:09.736Z,27.80
2019-06-20T16:12:38.469Z,27.90
2019-06-20T16:15:11.386Z,27.80
2019-06-20T16:17:40.171Z,27.90
2019-06-20T16:20:10.103Z,27.80
2019-06-20T16:22:40.028Z,27.80
2019-06-20T16:25:09.234Z,27.80
2019-06-20T16:27:38.180Z,27.80
2019-06-20T16:30:08.388Z,27.80
2019-06-20T16:32:39.037Z,27.70
2019-06-20T16:35:08.801Z,27.70
2019-06-20T16:37:37.758Z,27.70
2019-06-20T16:40:08.785Z,27.80
2019-06-20T16:42:38.574Z,27.90
2019-06-20T16:45:09.324Z,27.80
2019-06-20T16:47:40.181Z,27.90
2019-06-20T16:50:09.591Z,27.90
2019-06-20T16:52:37.552Z,27.80
2019-06-20T16:55:07.581Z,27.80
2019-06-20T16:57:36.412Z,27.70
2019-06-20T17:00:10.550Z,27.70
2019-06-20T17:02:39.383Z,27.70
2019-06-20T17:05:27.487Z,27.70
2019-06-20T17:07:56.492Z,27.70
2019-06-20T17:10:25.564Z,27.30
2019-06-20T17:12:54.319Z,26.80
2019-06-20T17:15:23.343Z,26.30
2019-06-20T17:17:52.210Z,25.90
2019-06-20T17:20:22.318Z,25.40
2019-06-20T17:22:51.174Z,24.60
2019-06-20T17:25:20.033Z,23.50
2019-06-20T17:27:49.943Z,22.70
2019-06-20T17:30:20.381Z,22.20
2019-06-20T17:32:49.236Z,21.70
2019-06-20T17:35:18.363Z,21.50
2019-06-20T17:37:47.212Z,21.40
2019-06-20T17:40:17.157Z,21.40
2019-06-20T17:42:45.979Z,21.40
2019-06-20T17:45:15.504Z,21.40
2019-06-20T17:47:44.250Z,21.30
2019-06-20T17:50:13.806Z,21.30
2019-06-20T17:52:42.562Z,21.10
2019-06-20T17:55:13.663Z,21.10
2019-06-20T17:57:42.429Z,21.00
2019-06-20T18:00:16.452Z,20.90
2019-06-20T18:02:47.110Z,20.90
2019-06-20T18:05:16.475Z,20.80
2019-06-20T18:07:45.266Z,20.70
2019-06-20T18:10:15.290Z,20.80
2019-06-20T18:12:44.178Z,20.80
2019-06-20T18:15:13.673Z,20.80
2019-06-20T18:17:42.508Z,20.70
2019-06-20T18:20:11.691Z,20.70
2019-06-20T18:22:40.541Z,20.70
2019-06-20T18:25:11.796Z,20.70
2019-06-20T18:27:40.507Z,20.70
2019-06-20T18:30:10.827Z,20.70
2019-06-20T18:32:41.539Z,20.80
2019-06-20T18:35:10.241Z,20.90
2019-06-20T18:37:39.141Z,20.90
2019-06-20T18:40:14.141Z,20.80
2019-06-20T18:42:44.516Z,20.80
2019-06-20T18:45:13.461Z,20.80
2019-06-20T18:47:42.383Z,20.80
2019-06-20T18:50:12.458Z,20.90
2019-06-20T18:52:51.752Z,20.80
2019-06-20T18:55:13.265Z,20.80
2019-06-20T18:57:42.131Z,20.80
2019-06-20T19:00:13.866Z,20.80
2019-06-20T19:02:42.691Z,20.80
2019-06-20T19:05:12.040Z,20.80
2019-06-20T19:07:40.953Z,20.70
2019-06-20T19:10:10.622Z,20.80
2019-06-20T19:12:38.586Z,21.00
2019-06-20T19:15:29.392Z,20.80
2019-06-20T19:17:58.307Z,20.50
2019-06-20T19:20:31.387Z,20.60
2019-06-20T19:23:01.405Z,20.60
2019-06-20T19:25:32.863Z,20.70
2019-06-20T19:28:07.400Z,20.70
2019-06-20T19:30:50.644Z,20.50
2019-06-20T19:33:19.591Z,20.50
2019-06-20T19:35:49.672Z,20.50
2019-06-20T19:38:18.558Z,20.50
2019-06-20T19:40:49.305Z,20.40
2019-06-20T19:43:19.649Z,20.40
2019-06-20T19:46:11.617Z,20.40
2019-06-20T19:48:40.513Z,20.40
2019-06-20T19:51:09.335Z,20.30
2019-06-20T19:53:38.250Z,20.30
2019-06-20T19:56:15.779Z,20.30
2019-06-20T19:58:52.085Z,20.30
2019-06-20T20:01:22.098Z,20.30
2019-06-20T20:03:55.066Z,20.30
2019-06-20T20:06:24.617Z,20.20
2019-06-20T20:08:53.672Z,20.20
2019-06-20T20:11:28.875Z,20.30
2019-06-20T20:13:57.796Z,20.40
2019-06-20T20:16:26.695Z,20.50
2019-06-20T20:18:58.882Z,20.50
2019-06-20T20:21:29.876Z,20.40
2019-06-20T20:23:59.815Z,20.30
2019-06-20T20:26:30.480Z,20.30
2019-06-20T20:28:59.252Z,20.40
2019-06-20T20:31:28.076Z,20.40
2019-06-20T20:34:06.162Z,20.50
2019-06-20T20:36:36.824Z,20.40
2019-06-20T20:39:07.809Z,20.50
2019-06-20T20:41:38.450Z,20.50
2019-06-20T20:44:08.643Z,20.50
2019-06-20T20:46:37.509Z,20.50
2019-06-20T20:49:15.449Z,20.50
2019-06-20T20:51:45.419Z,20.50
2019-06-20T20:54:14.110Z,20.40
2019-06-20T20:56:42.936Z,20.30
2019-06-20T20:59:12.685Z,20.30
2019-06-20T21:01:43.170Z,20.30
2019-06-20T21:04:12.015Z,20.30
2019-06-20T21:06:40.848Z,20.20
2019-06-20T21:09:09.677Z,20.20
2019-06-20T21:11:38.443Z,20.20
2019-06-20T21:14:07.411Z,20.20
2019-06-20T21:16:36.153Z,20.10
2019-06-20T21:19:05.767Z,20.10
2019-06-20T21:21:34.663Z,20.20
2019-06-20T21:24:03.586Z,20.20
2019-06-20T21:26:45.261Z,20.20
2019-06-20T21:29:02.772Z,20.20
2019-06-20T21:31:31.550Z,20.20
2019-06-20T21:34:00.402Z,20.20
2019-06-20T21:36:29.229Z,20.20
2019-06-20T21:38:58.050Z,20.30
2019-06-20T21:41:26.911Z,20.30
2019-06-20T21:43:55.746Z,20.30
2019-06-20T21:46:24.626Z,20.30
2019-06-20T21:48:53.584Z,20.30
2019-06-20T21:51:22.372Z,20.30
2019-06-20T21:53:51.195Z,20.30
2019-06-20T21:56:20.077Z,20.20
2019-06-20T21:58:48.851Z,20.20
2019-06-20T22:01:18.586Z,20.20
2019-06-20T22:03:46.494Z,20.20
2019-06-20T22:06:23.799Z,20.10
2019-06-20T22:08:45.802Z,20.10
2019-06-20T22:11:14.629Z,20.10
2019-06-20T22:13:45.144Z,20.10
2019-06-20T22:16:14.041Z,20.10
2019-06-20T22:18:42.791Z,20.10
2019-06-20T22:21:11.712Z,20.10
2019-06-20T22:23:40.474Z,20.10
2019-06-20T22:26:09.345Z,20.10
2019-06-20T22:28:38.000Z,20.10
2019-06-20T22:31:06.833Z,20.10
2019-06-20T22:33:37.507Z,20.10
2019-06-20T22:36:07.347Z,20.00
2019-06-20T22:38:36.145Z,20.00
2019-06-20T22:41:05.007Z,20.00
2019-06-20T22:43:33.832Z,20.00
2019-06-20T22:46:02.794Z,20.00
2019-06-20T22:48:31.616Z,20.00
2019-06-20T22:51:00.438Z,20.00
2019-06-20T22:53:29.393Z,20.00
2019-06-20T22:55:58.299Z,20.10
2019-06-20T22:58:27.108Z,20.00
2019-06-20T23:00:55.931Z,20.00
2019-06-20T23:03:24.787Z,20.00
2019-06-20T23:05:53.507Z,20.00
2019-06-20T23:08:22.261Z,20.00
2019-06-20T23:10:51.009Z,20.00
2019-06-20T23:13:19.941Z,19.90
2019-06-20T23:15:48.732Z,19.90
2019-06-20T23:18:17.615Z,19.90
2019-06-20T23:21:03.559Z,19.90
2019-06-20T23:23:16.964Z,19.90
2019-06-20T23:25:47.337Z,19.90
2019-06-20T23:28:16.249Z,19.90
2019-06-20T23:30:45.058Z,19.80
2019-06-20T23:33:13.825Z,19.80
2019-06-20T23:35:42.664Z,19.80
2019-06-20T23:38:11.513Z,19.80
2019-06-20T23:40:40.321Z,19.80
2019-06-20T23:43:09.183Z,19.80
2019-06-20T23:45:37.998Z,19.80
2019-06-20T23:48:06.776Z,19.70
2019-06-20T23:50:35.544Z,19.70
2019-06-20T23:53:22.175Z,19.70
2019-06-20T23:55:51.050Z,19.60
2019-06-20T23:58:19.795Z,19.70
